Time;durP1;ratioP1;P1;durP2;ratioP2;P2;SDS_P1;SDS_P2;PMS_P1;PMS_P2;Temp;Humidity;BMP_temperature;BMP_pressure;BME280_temperature;BME280_humidity;BME280_pressure;Samples;Min_cycle;Max_cycle;Signal;HPM_P1;HPM_P2
2022/04/11 05:00:37;;;;;;;9.33;8.43;;;4.30;97.20;;;;;;1687722;29;20239;-72
2022/04/11 05:01:28;;;;;;;9.25;8.45;;;4.30;97.20;;;;;;1687731;29;20201;-72
2022/04/11 05:02:19;;;;;;;10.80;8.27;;;4.30;97.20;;;;;;1687684;29;20200;-72
2022/04/11 05:03:10;;;;;;;8.10;7.40;;;4.30;97.20;;;;;;1687784;29;20201;-72
2022/04/11 05:04:02;;;;;;;8.90;8.00;;;4.30;97.20;;;;;;1687016;29;20209;-72
2022/04/11 05:04:53;;;;;;;9.23;8.32;;;4.30;97.20;;;;;;1687810;29;20213;-72
2022/04/11 05:05:45;;;;;;;8.90;8.10;;;4.30;97.20;;;;;;1687688;29;20204;-72
2022/04/11 05:06:35;;;;;;;8.10;7.40;;;4.30;97.20;;;;;;1687701;29;20460;-72
2022/04/11 05:07:27;;;;;;;9.07;8.17;;;4.30;97.20;;;;;;1687762;29;20208;-71
2022/04/11 05:08:18;;;;;;;8.63;7.93;;;4.30;97.20;;;;;;1687433;29;20239;-71
2022/04/11 05:09:09;;;;;;;9.37;8.33;;;4.30;97.20;;;;;;1687701;29;20204;-71
2022/04/11 05:10:01;;;;;;;8.80;8.00;;;4.30;97.20;;;;;;1687758;29;20293;-71
2022/04/11 05:10:53;;;;;;;8.20;7.40;;;4.30;97.20;;;;;;1687727;29;20315;-72
2022/04/11 05:11:44;;;;;;;7.97;7.18;;;4.30;97.20;;;;;;1687695;29;20205;-71
2022/04/11 05:12:40;;;;;;;8.15;7.05;;;4.30;97.20;;;;;;1687727;29;20204;-71
2022/04/11 05:13:30;;;;;;;7.78;7.10;;;4.30;97.20;;;;;;1687633;29;20229;-71
2022/04/11 05:14:22;;;;;;;7.80;7.00;;;4.30;97.20;;;;;;1687657;29;20224;-71
2022/04/11 05:15:13;;;;;;;7.93;7.13;;;4.30;97.20;;;;;;1687684;29;20268;-71
2022/04/11 05:16:07;;;;;;;8.10;7.43;;;4.30;97.20;;;;;;1687569;29;20204;-72
2022/04/11 05:16:57;;;;;;;7.07;6.47;;;4.30;97.20;;;;;;1687738;29;20204;-72
2022/04/11 05:17:49;;;;;;;8.23;7.53;;;4.30;97.20;;;;;;1687837;29;20196;-72
2022/04/11 05:18:40;;;;;;;7.75;7.00;;;4.30;97.20;;;;;;1687363;29;20718;-71
2022/04/11 05:19:31;;;;;;;7.10;6.50;;;4.30;97.20;;;;;;1687701;29;20657;-72
2022/04/11 05:20:23;;;;;;;7.20;6.47;;;4.30;97.20;;;;;;1687610;29;20231;-72
2022/04/11 05:21:14;;;;;;;7.15;6.43;;;4.30;97.20;;;;;;1687730;29;20287;-72
2022/04/11 05:22:06;;;;;;;8.18;7.38;;;4.30;97.20;;;;;;1687678;29;20204;-71
2022/04/11 05:22:58;;;;;;;7.43;6.72;;;4.30;97.20;;;;;;1687803;29;20661;-71
2022/04/11 05:23:48;;;;;;;7.65;6.88;;;4.30;97.20;;;;;;1687598;29;20239;-70
2022/04/11 05:24:40;;;;;;;7.07;6.37;;;4.30;97.20;;;;;;1689410;29;20199;-71
2022/04/11 05:25:31;;;;;;;7.75;7.03;;;4.30;97.20;;;;;;1689739;29;20204;-71
2022/04/11 05:26:23;;;;;;;7.47;6.67;;;4.30;97.20;;;;;;1694142;29;20683;-72
2022/04/11 05:27:13;;;;;;;7.82;7.13;;;4.30;97.20;;;;;;1689089;29;20208;-71
2022/04/11 05:28:05;;;;;;;7.30;6.70;;;4.30;97.20;;;;;;1687287;29;20228;-71
2022/04/11 05:28:56;;;;;;;7.78;7.07;;;4.30;97.20;;;;;;1687637;29;20215;-72
2022/04/11 05:29:48;;;;;;;8.20;7.50;;;4.30;97.20;;;;;;1687597;29;20287;-71
2022/04/11 05:30:39;;;;;;;8.38;7.65;;;4.30;97.20;;;;;;1687487;29;20601;-72
2022/04/11 05:31:32;;;;;;;8.43;7.63;;;4.30;97.20;;;;;;1688605;29;20548;-71
2022/04/11 05:32:22;;;;;;;8.40;7.60;;;4.30;97.20;;;;;;1690706;29;20204;-72
2022/04/11 05:33:16;;;;;;;7.97;7.20;;;4.30;97.20;;;;;;1694094;29;20210;-72
2022/04/11 05:34:07;;;;;;;9.25;7.22;;;4.30;97.20;;;;;;1694029;29;20212;-71
2022/04/11 05:34:58;;;;;;;8.90;7.97;;;4.30;97.20;;;;;;1694137;29;20204;-69
2022/04/11 05:35:50;;;;;;;8.10;7.30;;;4.30;97.20;;;;;;1694134;29;20910;-68
2022/04/11 05:36:41;;;;;;;8.23;7.53;;;4.30;97.20;;;;;;1694033;29;20226;-68
2022/04/11 05:37:32;;;;;;;8.65;7.85;;;4.30;97.20;;;;;;1694197;29;20214;-68
2022/04/11 05:38:24;;;;;;;8.13;7.53;;;4.30;97.20;;;;;;1693747;29;20211;-68
2022/04/11 05:39:15;;;;;;;7.88;7.28;;;4.40;97.20;;;;;;1694046;29;20679;-68
2022/04/11 05:40:09;;;;;;;9.10;7.47;;;4.40;97.20;;;;;;1694009;29;20667;-69
2022/04/11 05:41:00;;;;;;;8.90;8.07;;;4.40;97.20;;;;;;1694125;29;20532;-69
2022/04/11 05:41:52;;;;;;;8.70;7.80;;;4.40;97.20;;;;;;1689395;29;20216;-69
2022/04/11 05:42:42;;;;;;;9.48;8.48;;;4.50;97.20;;;;;;1686543;29;20657;-69
2022/04/11 05:43:34;;;;;;;8.83;7.93;;;4.50;97.20;;;;;;1693542;29;20620;-69
2022/04/11 05:44:25;;;;;;;9.52;8.73;;;4.50;97.20;;;;;;1692999;29;20203;-68
2022/04/11 05:45:17;;;;;;;9.48;8.68;;;4.50;97.20;;;;;;1691967;29;20210;-69
2022/04/11 05:46:07;;;;;;;12.88;8.82;;;4.60;97.20;;;;;;1693932;29;20196;-68
2022/04/11 05:47:00;;;;;;;9.80;8.17;;;4.60;97.20;;;;;;1689545;29;20204;-68
2022/04/11 05:47:51;;;;;;;9.30;8.40;;;4.60;97.20;;;;;;1687528;29;20240;-68
2022/04/11 05:48:44;;;;;;;9.73;8.70;;;4.70;97.20;;;;;;1687155;29;20204;-68
2022/04/11 05:49:37;;;;;;;8.95;8.10;;;4.70;97.20;;;;;;1687528;29;20219;-69
2022/04/11 05:50:28;;;;;;;9.45;8.60;;;4.80;97.20;;;;;;1687400;29;20556;-69
2022/04/11 05:51:19;;;;;;;9.35;8.40;;;4.80;97.20;;;;;;1685943;29;20212;-69
2022/04/11 05:52:15;;;;;;;10.63;9.53;;;4.80;97.20;;;;;;1686960;29;20283;-69
2022/04/11 05:53:05;;;;;;;9.55;8.75;;;4.90;97.20;;;;;;1686198;29;20196;-69
2022/04/11 05:53:57;;;;;;;9.80;8.90;;;4.90;97.20;;;;;;1687422;29;20232;-69
2022/04/11 05:54:48;;;;;;;10.18;9.18;;;5.00;97.20;;;;;;1682754;29;20527;-68
2022/04/11 05:55:40;;;;;;;10.30;9.23;;;5.00;97.20;;;;;;1687085;29;20204;-69
2022/04/11 05:56:30;;;;;;;9.48;8.63;;;5.00;97.20;;;;;;1687341;29;20236;-68
2022/04/11 05:57:22;;;;;;;9.10;8.30;;;5.10;97.20;;;;;;1687234;29;20207;-69
2022/04/11 05:58:13;;;;;;;9.75;8.80;;;5.10;97.20;;;;;;1686999;29;20197;-69
2022/04/11 05:59:05;;;;;;;13.70;9.30;;;5.10;97.20;;;;;;1687367;29;20201;-70
2022/04/11 05:59:55;;;;;;;11.48;9.40;;;5.20;97.20;;;;;;1687632;29;20578;-67
2022/04/11 06:00:47;;;;;;;10.23;9.13;;;5.20;97.20;;;;;;1686463;29;20680;-68
2022/04/11 06:01:40;;;;;;;10.32;9.27;;;5.20;97.20;;;;;;1685488;29;20233;-68
2022/04/11 06:02:33;;;;;;;10.48;9.57;;;5.30;97.20;;;;;;1687421;29;20231;-68
2022/04/11 06:03:23;;;;;;;10.75;9.65;;;5.30;97.20;;;;;;1687372;29;20208;-68
2022/04/11 06:04:15;;;;;;;9.87;8.63;;;5.30;97.20;;;;;;1688543;29;20203;-68
2022/04/11 06:05:07;;;;;;;10.02;9.13;;;5.30;97.20;;;;;;1691869;29;20196;-68
2022/04/11 06:05:59;;;;;;;10.60;9.50;;;5.30;97.20;;;;;;1688333;29;20197;-68
2022/04/11 06:06:50;;;;;;;11.55;9.18;;;5.40;97.20;;;;;;1687010;29;20236;-68
2022/04/11 06:07:42;;;;;;;10.13;9.23;;;5.40;97.20;;;;;;1693936;29;20208;-68
2022/04/11 06:08:33;;;;;;;11.98;9.82;;;5.40;97.20;;;;;;1692145;29;20212;-68
2022/04/11 06:09:24;;;;;;;10.80;9.60;;;5.40;97.20;;;;;;1687531;29;20200;-68
2022/04/11 06:10:15;;;;;;;11.43;10.48;;;5.40;97.20;;;;;;1689567;29;20203;-68
2022/04/11 06:11:07;;;;;;;11.63;9.13;;;5.50;97.20;;;;;;1686389;29;20204;-68
2022/04/11 06:11:58;;;;;;;9.40;8.55;;;5.50;97.20;;;;;;1686411;29;20495;-68
2022/04/11 06:12:50;;;;;;;9.70;8.88;;;5.50;97.20;;;;;;1688537;29;20200;-68
2022/04/11 06:13:42;;;;;;;11.00;9.40;;;5.50;97.20;;;;;;1687396;29;20208;-68
2022/04/11 06:14:33;;;;;;;10.70;9.70;;;5.60;97.20;;;;;;1682756;29;20268;-68
2022/04/11 06:15:24;;;;;;;10.77;9.20;;;5.60;97.20;;;;;;1685140;29;20640;-68
2022/04/11 06:16:16;;;;;;;9.83;8.83;;;5.60;97.20;;;;;;1684433;29;20731;-68
2022/04/11 06:17:06;;;;;;;12.02;9.73;;;5.60;97.20;;;;;;1682149;29;20216;-68
2022/04/11 06:17:59;;;;;;;9.67;8.57;;;5.60;97.20;;;;;;1684401;29;20203;-67
2022/04/11 06:18:50;;;;;;;10.63;8.60;;;5.70;97.20;;;;;;1687311;29;20302;-68
2022/04/11 06:19:42;;;;;;;10.00;9.00;;;5.70;97.20;;;;;;1691573;29;20207;-68
2022/04/11 06:20:33;;;;;;;11.63;8.95;;;5.70;97.20;;;;;;1692481;29;20276;-68
2022/04/11 06:21:24;;;;;;;10.03;8.60;;;5.70;97.20;;;;;;1688705;29;20209;-68
2022/04/11 06:22:15;;;;;;;10.13;8.65;;;5.80;97.20;;;;;;1694361;29;20207;-68
2022/04/11 06:23:07;;;;;;;10.60;9.50;;;5.80;97.20;;;;;;1690967;29;20664;-68
2022/04/11 06:23:58;;;;;;;10.75;9.77;;;5.80;97.20;;;;;;1689993;29;20487;-68
2022/04/11 06:24:50;;;;;;;9.53;8.53;;;5.80;97.20;;;;;;1690841;29;20199;-68
2022/04/11 06:25:41;;;;;;;10.75;9.70;;;5.80;97.20;;;;;;1692223;29;20240;-68
2022/04/11 06:26:32;;;;;;;10.97;9.83;;;5.90;97.20;;;;;;1688685;29;20204;-68
2022/04/11 06:27:23;;;;;;;11.02;9.85;;;5.90;97.20;;;;;;1691972;29;20254;-68
2022/04/11 06:28:15;;;;;;;10.43;9.43;;;5.90;97.20;;;;;;1688239;29;20205;-68
2022/04/11 06:29:05;;;;;;;10.20;9.32;;;5.90;97.20;;;;;;1688333;29;20612;-68
2022/04/11 06:29:57;;;;;;;10.40;9.10;;;5.90;97.20;;;;;;1688583;29;20542;-67
2022/04/11 06:30:48;;;;;;;10.43;9.32;;;6.00;97.20;;;;;;1688529;29;20292;-68
2022/04/11 06:31:39;;;;;;;10.30;9.30;;;6.00;97.20;;;;;;1688526;29;20209;-68
2022/04/11 06:32:32;;;;;;;10.52;9.43;;;6.00;97.20;;;;;;1692985;29;20218;-68
2022/04/11 06:33:25;;;;;;;10.77;9.65;;;6.00;97.20;;;;;;1689844;29;20206;-68
2022/04/11 06:34:16;;;;;;;9.90;8.90;;;6.00;97.20;;;;;;1686784;29;20212;-67
2022/04/11 06:35:09;;;;;;;9.60;8.80;;;6.00;97.20;;;;;;1690638;29;20221;-68
2022/04/11 06:36:00;;;;;;;11.13;9.30;;;6.10;97.20;;;;;;1694837;29;20580;-68
2022/04/11 06:36:51;;;;;;;10.97;10.07;;;6.10;97.20;;;;;;1689995;29;20624;-68
2022/04/11 06:37:42;;;;;;;13.15;9.20;;;6.10;97.20;;;;;;1683850;29;21108;-68
2022/04/11 06:38:34;;;;;;;10.20;9.10;;;6.10;97.20;;;;;;1683485;29;20555;-68
2022/04/11 06:39:25;;;;;;;10.23;9.23;;;6.10;97.20;;;;;;1688469;29;20216;-68
2022/04/11 06:40:17;;;;;;;10.70;9.65;;;6.20;97.20;;;;;;1688244;29;20209;-68
2022/04/11 06:41:09;;;;;;;10.68;9.10;;;6.20;97.20;;;;;;1689263;29;20295;-68
2022/04/11 06:42:01;;;;;;;10.25;9.35;;;6.20;97.20;;;;;;1692403;29;20541;-68
2022/04/11 06:42:51;;;;;;;11.85;9.10;;;6.20;97.20;;;;;;1688742;29;20204;-68
2022/04/11 06:43:43;;;;;;;9.23;8.33;;;6.30;97.20;;;;;;1688271;29;20204;-68
2022/04/11 06:44:34;;;;;;;9.52;8.52;;;6.30;97.20;;;;;;1687646;29;20347;-68
2022/04/11 06:45:25;;;;;;;12.00;9.00;;;6.30;97.20;;;;;;1685711;29;20197;-68
2022/04/11 06:46:16;;;;;;;9.32;8.40;;;6.40;97.20;;;;;;1688462;29;20488;-68
2022/04/11 06:47:09;;;;;;;9.70;8.80;;;6.40;97.20;;;;;;1688359;29;20248;-68
2022/04/11 06:47:59;;;;;;;10.00;9.00;;;6.40;97.20;;;;;;1690300;29;20200;-68
2022/04/11 06:48:52;;;;;;;10.80;8.97;;;6.40;97.20;;;;;;1688260;29;20205;-68
2022/04/11 06:49:43;;;;;;;10.07;9.23;;;6.40;97.20;;;;;;1688295;29;20695;-68
2022/04/11 06:50:35;;;;;;;10.80;9.73;;;6.50;97.20;;;;;;1688388;29;20756;-68
2022/04/11 06:51:25;;;;;;;10.55;9.68;;;6.50;97.20;;;;;;1681629;29;20215;-67
2022/04/11 06:52:17;;;;;;;11.03;9.43;;;6.50;97.20;;;;;;1681708;29;20209;-68
2022/04/11 06:53:08;;;;;;;10.80;9.70;;;6.50;97.20;;;;;;1685718;29;20197;-68
2022/04/11 06:53:59;;;;;;;11.93;9.63;;;6.60;97.20;;;;;;1687778;29;20201;-68
2022/04/11 06:54:50;;;;;;;10.43;9.43;;;6.60;97.20;;;;;;1687633;29;20208;-68
2022/04/11 06:55:44;;;;;;;10.00;9.00;;;6.70;97.20;;;;;;1688723;29;20212;-68
2022/04/11 06:56:34;;;;;;;10.60;9.52;;;6.70;97.20;;;;;;1694478;29;20219;-68
2022/04/11 06:57:26;;;;;;;10.53;9.53;;;6.70;97.20;;;;;;1688297;29;20212;-68
2022/04/11 06:58:17;;;;;;;9.68;8.70;;;6.80;97.20;;;;;;1687909;29;20245;-68
2022/04/11 06:59:09;;;;;;;10.32;9.43;;;6.80;97.20;;;;;;1688253;29;20222;-68
2022/04/11 07:00:01;;;;;;;11.60;10.38;;;6.80;97.20;;;;;;1688269;29;20209;-68
2022/04/11 07:00:52;;;;;;;11.63;10.48;;;6.90;97.20;;;;;;1688120;29;20239;-67
2022/04/11 07:01:43;;;;;;;10.63;9.52;;;6.90;97.20;;;;;;1688364;29;20231;-67
2022/04/11 07:02:36;;;;;;;10.63;9.57;;;7.00;97.20;;;;;;1688397;29;20288;-67
2022/04/11 07:03:30;;;;;;;9.98;8.98;;;7.00;97.20;;;;;;1688360;29;20213;-67
2022/04/11 07:04:23;;;;;;;11.32;10.00;;;7.10;97.20;;;;;;1688228;29;20214;-68
2022/04/11 07:05:14;;;;;;;11.60;10.38;;;7.10;97.20;;;;;;1688350;29;20193;-68
2022/04/11 07:06:06;;;;;;;10.37;9.37;;;7.10;97.20;;;;;;1692127;29;20218;-68
2022/04/11 07:06:56;;;;;;;10.85;9.40;;;7.20;97.20;;;;;;1691884;29;20236;-67
2022/04/11 07:07:49;;;;;;;9.27;8.37;;;7.20;97.20;;;;;;1688298;29;20209;-68
2022/04/11 07:08:40;;;;;;;10.85;9.20;;;7.30;97.20;;;;;;1687852;29;20209;-68
2022/04/11 07:09:32;;;;;;;9.38;8.13;;;7.30;97.20;;;;;;1688245;29;20728;-67
2022/04/11 07:10:22;;;;;;;9.80;8.35;;;7.30;97.20;;;;;;1688199;29;20275;-68
2022/04/11 07:11:14;;;;;;;9.97;8.23;;;7.30;97.20;;;;;;1688261;29;20260;-68
2022/04/11 07:12:06;;;;;;;9.45;8.52;;;7.40;97.20;;;;;;1687812;29;20209;-68
2022/04/11 07:12:58;;;;;;;9.85;8.40;;;7.40;97.20;;;;;;1687711;29;20634;-67
2022/04/11 07:13:49;;;;;;;10.27;9.23;;;7.40;97.20;;;;;;1688000;29;20223;-67
2022/04/11 07:14:41;;;;;;;10.17;9.17;;;7.50;97.20;;;;;;1688216;29;20204;-68
2022/04/11 07:15:32;;;;;;;10.13;9.05;;;7.50;97.20;;;;;;1688196;29;20235;-67
2022/04/11 07:16:24;;;;;;;13.80;9.38;;;7.50;97.20;;;;;;1693472;29;20204;-67
2022/04/11 07:17:15;;;;;;;10.80;8.43;;;7.60;97.20;;;;;;1689422;29;20215;-67
2022/04/11 07:18:07;;;;;;;9.73;8.83;;;7.70;97.20;;;;;;1687963;29;20287;-67
2022/04/11 07:18:58;;;;;;;9.90;8.90;;;7.70;97.20;;;;;;1688246;29;20207;-68
2022/04/11 07:19:51;;;;;;;10.00;7.97;;;7.80;97.20;;;;;;1688108;29;20288;-67
2022/04/11 07:20:42;;;;;;;9.63;8.52;;;7.90;97.20;;;;;;1688041;29;20501;-68
2022/04/11 07:21:33;;;;;;;9.00;8.20;;;7.90;97.20;;;;;;1688280;29;20208;-67
2022/04/11 07:22:24;;;;;;;9.57;8.20;;;8.00;97.20;;;;;;1688154;29;20220;-67
2022/04/11 07:23:16;;;;;;;8.93;8.00;;;8.00;97.20;;;;;;1688201;29;20209;-67
2022/04/11 07:24:07;;;;;;;9.30;8.40;;;8.10;97.20;;;;;;1688103;29;20254;-67
2022/04/11 07:25:00;;;;;;;9.00;8.10;;;8.20;97.20;;;;;;1688158;29;20200;-67
2022/04/11 07:25:51;;;;;;;10.15;8.20;;;8.20;97.20;;;;;;1690424;29;20464;-67
2022/04/11 07:26:43;;;;;;;8.87;8.10;;;8.30;97.20;;;;;;1693248;29;20210;-67
2022/04/11 07:27:33;;;;;;;9.10;7.85;;;8.40;97.20;;;;;;1687867;29;20460;-67
2022/04/11 07:28:25;;;;;;;8.27;7.47;;;8.40;97.20;;;;;;1687817;29;20728;-68
2022/04/11 07:29:16;;;;;;;9.02;6.90;;;8.50;97.20;;;;;;1688028;29;20231;-67
2022/04/11 07:30:08;;;;;;;10.67;8.90;;;8.50;97.20;;;;;;1688112;29;20215;-67
2022/04/11 07:30:59;;;;;;;9.43;8.52;;;8.60;97.20;;;;;;1687996;29;20716;-67
2022/04/11 07:31:51;;;;;;;9.10;8.30;;;8.70;97.20;;;;;;1688211;29;20208;-67
2022/04/11 07:32:41;;;;;;;8.38;7.57;;;8.70;97.20;;;;;;1688073;29;20209;-67
2022/04/11 07:33:33;;;;;;;10.60;8.27;;;8.80;97.20;;;;;;1688200;29;20210;-67
2022/04/11 07:34:24;;;;;;;8.27;6.90;;;8.90;97.20;;;;;;1688087;29;20211;-66
2022/04/11 07:35:17;;;;;;;8.40;7.60;;;8.90;97.20;;;;;;1688139;29;20657;-67
2022/04/11 07:36:08;;;;;;;8.88;8.00;;;9.00;97.20;;;;;;1692333;29;20738;-67
2022/04/11 07:37:00;;;;;;;9.25;8.35;;;9.00;97.20;;;;;;1688765;29;20197;-67
2022/04/11 07:37:51;;;;;;;9.60;8.60;;;9.10;97.20;;;;;;1688088;29;20211;-67
2022/04/11 07:38:42;;;;;;;9.03;8.30;;;9.20;97.20;;;;;;1687789;29;20228;-67
2022/04/11 07:39:33;;;;;;;9.45;8.50;;;9.20;97.20;;;;;;1688086;29;20239;-66
2022/04/11 07:40:25;;;;;;;9.93;8.87;;;9.30;97.20;;;;;;1687991;29;20216;-67
2022/04/11 07:41:15;;;;;;;11.20;7.93;;;9.40;97.20;;;;;;1688081;29;20207;-67
2022/04/11 07:42:07;;;;;;;10.87;9.77;;;9.40;97.20;;;;;;1688092;29;20204;-67
2022/04/11 07:42:58;;;;;;;9.32;8.40;;;9.50;97.20;;;;;;1688016;29;20239;-67
2022/04/11 07:43:51;;;;;;;8.03;7.33;;;9.60;97.20;;;;;;1688114;29;20684;-67
2022/04/11 07:44:41;;;;;;;9.65;8.48;;;9.60;97.20;;;;;;1688026;29;20244;-67
2022/04/11 07:45:33;;;;;;;9.03;7.77;;;9.70;97.20;;;;;;1688081;29;20200;-67
2022/04/11 07:46:24;;;;;;;8.55;7.50;;;9.80;97.20;;;;;;1693911;29;20647;-67
2022/04/11 07:47:15;;;;;;;8.70;7.90;;;9.80;97.20;;;;;;1689410;29;20200;-67
2022/04/11 07:48:06;;;;;;;8.90;7.90;;;9.90;97.20;;;;;;1687660;29;20258;-67
2022/04/11 07:48:58;;;;;;;8.98;8.07;;;10.00;97.20;;;;;;1688024;29;20749;-67
2022/04/11 07:49:49;;;;;;;7.95;7.25;;;10.00;97.20;;;;;;1687954;29;20219;-67
2022/04/11 07:50:42;;;;;;;8.20;6.87;;;10.10;97.20;;;;;;1687870;29;20307;-67
2022/04/11 07:51:33;;;;;;;7.88;7.18;;;10.10;97.20;;;;;;1688047;29;20204;-67
2022/04/11 07:52:25;;;;;;;8.93;7.50;;;10.20;97.20;;;;;;1688006;29;20291;-68
2022/04/11 07:53:16;;;;;;;11.25;8.35;;;10.20;97.20;;;;;;1688064;29;20286;-68
2022/04/11 07:54:08;;;;;;;8.00;7.17;;;10.30;97.20;;;;;;1687951;29;20201;-67
2022/04/11 07:54:59;;;;;;;8.25;7.30;;;10.30;97.20;;;;;;1687933;29;20676;-68
2022/04/11 07:55:50;;;;;;;9.10;7.60;;;10.40;97.20;;;;;;1690027;29;20663;-67
2022/04/11 07:56:41;;;;;;;8.25;7.55;;;10.40;97.20;;;;;;1693540;29;20211;-67
2022/04/11 07:57:33;;;;;;;8.30;7.50;;;10.50;97.20;;;;;;1687948;29;20206;-68
2022/04/11 07:58:24;;;;;;;8.27;7.50;;;10.50;97.20;;;;;;1687677;29;20695;-67
2022/04/11 07:59:16;;;;;;;7.53;6.77;;;10.50;97.20;;;;;;1687866;29;20574;-68
2022/04/11 08:00:09;;;;;;;8.68;7.88;;;10.60;97.20;;;;;;1687998;29;20208;-68
2022/04/11 08:01:00;;;;;;;9.43;7.00;;;10.60;97.20;;;;;;1687796;29;20311;-68
2022/04/11 08:01:52;;;;;;;8.02;7.22;;;10.70;97.20;;;;;;1687997;29;20239;-68
2022/04/11 08:02:44;;;;;;;10.27;7.10;;;10.70;97.20;;;;;;1687889;29;20707;-67
2022/04/11 08:03:34;;;;;;;10.00;7.68;;;10.80;97.20;;;;;;1687977;29;20247;-67
2022/04/11 08:04:26;;;;;;;9.43;7.30;;;10.80;97.20;;;;;;1687877;29;20287;-68
2022/04/11 08:05:19;;;;;;;15.45;7.55;;;10.90;97.20;;;;;;1687815;29;20216;-67
2022/04/11 08:06:12;;;;;;;9.32;7.20;;;11.00;97.20;;;;;;1692537;29;20254;-67
2022/04/11 08:07:03;;;;;;;6.85;6.18;;;11.00;97.20;;;;;;1690639;29;20577;-68
2022/04/11 08:07:55;;;;;;;8.77;7.63;;;11.10;97.20;;;;;;1687859;29;20200;-67
2022/04/11 08:08:47;;;;;;;9.07;7.40;;;11.10;97.20;;;;;;1687420;29;20639;-68
2022/04/11 08:09:38;;;;;;;7.75;6.85;;;11.20;97.20;;;;;;1687966;29;20201;-67
2022/04/11 08:10:30;;;;;;;12.38;7.50;;;11.30;97.20;;;;;;1686704;29;20615;-67
2022/04/11 08:11:22;;;;;;;6.65;5.53;;;11.30;97.20;;;;;;1686867;29;20260;-67
2022/04/11 08:12:13;;;;;;;7.05;6.20;;;11.40;97.20;;;;;;1687728;29;20683;-67
2022/04/11 08:13:05;;;;;;;8.30;6.30;;;11.50;97.20;;;;;;1687628;29;20720;-67
2022/04/11 08:13:56;;;;;;;8.68;6.85;;;11.60;97.20;;;;;;1687753;29;20205;-67
2022/04/11 08:14:48;;;;;;;10.00;7.20;;;11.60;97.20;;;;;;1687786;29;20200;-67
2022/04/11 08:15:38;;;;;;;9.68;6.53;;;11.60;97.20;;;;;;1687711;29;20227;-67
2022/04/11 08:16:30;;;;;;;7.17;6.20;;;11.70;97.20;;;;;;1689722;29;20223;-68
2022/04/11 08:17:21;;;;;;;8.88;6.65;;;11.70;97.20;;;;;;1687578;29;20232;-68
2022/04/11 08:18:13;;;;;;;9.15;6.75;;;11.80;97.20;;;;;;1687441;29;20676;-67
2022/04/11 08:19:04;;;;;;;8.80;7.90;;;11.80;97.20;;;;;;1687675;29;20660;-67
2022/04/11 08:19:56;;;;;;;9.70;7.03;;;11.80;97.20;;;;;;1687835;29;20205;-68
2022/04/11 08:20:46;;;;;;;7.47;6.75;;;11.80;97.20;;;;;;1687588;29;20232;-68
2022/04/11 08:21:40;;;;;;;6.60;6.00;;;11.90;97.20;;;;;;1687647;29;20200;-70
2022/04/11 08:22:30;;;;;;;6.85;6.25;;;12.00;97.20;;;;;;1687703;29;20204;-68
2022/04/11 08:23:22;;;;;;;6.40;5.80;;;12.00;97.20;;;;;;1687685;29;20215;-68
2022/04/11 08:24:13;;;;;;;6.07;5.47;;;12.00;97.20;;;;;;1687941;29;20209;-68
2022/04/11 08:25:06;;;;;;;5.50;5.00;;;12.00;97.20;;;;;;1687649;29;20208;-68
2022/04/11 08:25:56;;;;;;;6.75;5.68;;;12.10;97.20;;;;;;1688079;29;20208;-68
2022/04/11 08:26:48;;;;;;;6.57;5.90;;;12.10;97.20;;;;;;1687708;29;20283;-68
2022/04/11 08:27:39;;;;;;;7.13;6.53;;;12.20;97.20;;;;;;1687717;29;20455;-68
2022/04/11 08:28:31;;;;;;;5.83;5.20;;;12.20;97.20;;;;;;1687475;29;20292;-68
2022/04/11 08:29:22;;;;;;;6.03;5.32;;;12.30;97.20;;;;;;1687555;29;20227;-68
2022/04/11 08:30:14;;;;;;;5.67;5.17;;;12.40;97.20;;;;;;1687764;29;20231;-68
2022/04/11 08:31:04;;;;;;;8.40;7.15;;;12.50;97.20;;;;;;1687577;29;20205;-68
2022/04/11 08:31:56;;;;;;;8.77;7.97;;;12.50;97.20;;;;;;1687850;29;20223;-68
2022/04/11 08:32:48;;;;;;;6.80;6.18;;;12.70;97.20;;;;;;1685341;29;20243;-68
2022/04/11 08:33:40;;;;;;;7.20;6.60;;;12.80;97.20;;;;;;1687531;29;20192;-68
2022/04/11 08:34:31;;;;;;;7.18;6.47;;;12.90;97.20;;;;;;1687488;29;20239;-69
2022/04/11 08:35:23;;;;;;;11.60;7.27;;;12.90;97.20;;;;;;1688015;29;20207;-71
2022/04/11 08:36:14;;;;;;;6.22;5.72;;;13.00;97.20;;;;;;1688169;29;20200;-69
2022/04/11 08:37:07;;;;;;;6.13;5.53;;;13.20;97.20;;;;;;1687876;29;20201;-69
2022/04/11 08:37:59;;;;;;;7.68;6.35;;;13.30;97.20;;;;;;1687695;29;20223;-69
2022/04/11 08:38:52;;;;;;;10.25;6.03;;;13.30;97.20;;;;;;1687476;29;20283;-69
2022/04/11 08:39:42;;;;;;;5.85;5.35;;;13.40;97.20;;;;;;1685900;29;20219;-69
2022/04/11 08:40:36;;;;;;;6.53;5.47;;;13.50;97.20;;;;;;1685578;29;20232;-69
2022/04/11 08:41:31;;;;;;;7.25;6.20;;;13.60;97.20;;;;;;1693465;29;20212;-69
2022/04/11 08:42:24;;;;;;;10.25;5.40;;;13.70;97.20;;;;;;1687093;29;20283;-68
2022/04/11 08:43:15;;;;;;;5.80;5.20;;;13.80;97.20;;;;;;1692118;29;20204;-69
2022/04/11 08:44:07;;;;;;;6.05;5.55;;;13.80;97.20;;;;;;1694111;29;20243;-68
2022/04/11 08:45:00;;;;;;;5.78;5.28;;;13.90;97.20;;;;;;1691718;29;20208;-68
2022/04/11 08:45:54;;;;;;;7.03;5.32;;;13.90;97.20;;;;;;1687741;29;20207;-69
2022/04/11 08:46:45;;;;;;;6.55;6.05;;;14.00;97.20;;;;;;1687563;29;20216;-68
2022/04/11 08:47:36;;;;;;;5.80;5.30;;;14.10;97.20;;;;;;1687763;29;20204;-68
2022/04/11 08:48:27;;;;;;;5.72;5.22;;;14.10;97.20;;;;;;1687466;29;20944;-68
2022/04/11 08:49:19;;;;;;;6.93;6.13;;;14.20;97.20;;;;;;1687700;29;20701;-68
2022/04/11 08:50:11;;;;;;;6.57;5.97;;;14.20;97.20;;;;;;1687701;29;20228;-68
2022/04/11 08:51:04;;;;;;;6.05;5.45;;;14.30;97.20;;;;;;1687649;29;20204;-69
2022/04/11 08:51:55;;;;;;;7.93;5.50;;;14.40;97.20;;;;;;1687807;29;20268;-69
2022/04/11 08:52:49;;;;;;;8.87;5.10;;;14.40;97.20;;;;;;1687670;29;20205;-69
2022/04/11 08:53:43;;;;;;;6.10;4.82;;;14.50;97.20;;;;;;1687588;29;20453;-69
2022/04/11 08:54:36;;;;;;;7.75;5.47;;;14.50;97.20;;;;;;1687877;29;20204;-69
2022/04/11 08:55:28;;;;;;;6.47;5.25;;;14.60;97.20;;;;;;1687591;29;20241;-69
2022/04/11 08:56:20;;;;;;;5.05;4.65;;;14.60;97.20;;;;;;1693372;29;20219;-69
2022/04/11 08:57:11;;;;;;;6.38;4.88;;;14.60;97.20;;;;;;1694179;29;20211;-69
2022/04/11 08:58:04;;;;;;;7.60;5.87;;;14.70;97.20;;;;;;1693793;29;20208;-69
2022/04/11 08:58:55;;;;;;;5.70;5.20;;;14.80;97.20;;;;;;1694115;29;20955;-69
2022/04/11 08:59:48;;;;;;;5.28;4.88;;;14.90;97.20;;;;;;1691045;29;20650;-70
2022/04/11 09:00:39;;;;;;;5.82;5.30;;;14.90;97.20;;;;;;1687573;29;20724;-70
2022/04/11 09:01:33;;;;;;;6.07;5.00;;;14.90;97.20;;;;;;1687598;29;20644;-69
2022/04/11 09:02:30;;;;;;;8.02;4.80;;;15.00;97.20;;;;;;1687594;29;20213;-69
2022/04/11 09:03:22;;;;;;;5.57;5.07;;;15.10;97.20;;;;;;1687700;29;20633;-69
2022/04/11 09:04:13;;;;;;;6.43;5.72;;;15.10;97.20;;;;;;1687669;29;20643;-68
2022/04/11 09:05:05;;;;;;;5.67;5.17;;;15.20;97.20;;;;;;1687633;29;20208;-69
2022/04/11 09:06:06;;;;;;;6.72;5.32;;;15.20;97.20;;;;;;1690538;29;20200;-70
2022/04/11 09:06:59;;;;;;;5.85;5.07;;;15.30;97.20;;;;;;1694095;29;20208;-69
2022/04/11 09:07:54;;;;;;;5.00;4.50;;;15.30;97.20;;;;;;1693811;29;20291;-69
2022/04/11 09:08:51;;;;;;;5.03;4.53;;;15.40;97.20;;;;;;1686631;29;20251;-69
2022/04/11 09:09:42;;;;;;;5.80;4.38;;;15.40;97.20;;;;;;1694068;29;20215;-69
2022/04/11 09:10:37;;;;;;;4.83;4.43;;;15.50;97.20;;;;;;1693750;29;20310;-69
2022/04/11 09:11:32;;;;;;;4.75;4.35;;;15.60;97.20;;;;;;1694123;29;20455;-69
2022/04/11 09:12:24;;;;;;;5.05;4.55;;;15.70;97.20;;;;;;1694136;29;20204;-69
2022/04/11 09:13:15;;;;;;;4.90;4.50;;;16.00;97.20;;;;;;1694240;29;20214;-69
2022/04/11 09:14:09;;;;;;;4.55;4.15;;;16.70;96.30;;;;;;1694104;29;20204;-69
2022/04/11 09:15:05;;;;;;;4.95;4.55;;;17.80;94.30;;;;;;1692575;29;20204;-69
2022/04/11 09:15:57;;;;;;;4.85;3.92;;;19.10;92.60;;;;;;1694273;29;20206;-69
2022/04/11 09:16:51;;;;;;;4.50;4.10;;;20.00;89.60;;;;;;1694492;29;20215;-69
2022/04/11 09:17:44;;;;;;;5.57;4.90;;;20.70;87.50;;;;;;1694207;29;20699;-69
2022/04/11 09:18:47;;;;;;;5.72;4.50;;;21.10;86.50;;;;;;1693798;29;20208;-69
2022/04/11 09:19:38;;;;;;;5.03;4.05;;;21.80;85.30;;;;;;1694092;29;20308;-69
2022/04/11 09:20:31;;;;;;;4.25;3.75;;;22.80;83.80;;;;;;1694007;29;20216;-70
2022/04/11 09:21:23;;;;;;;4.75;4.20;;;23.70;82.20;;;;;;1694093;29;20218;-70
2022/04/11 09:22:29;;;;;;;4.35;3.95;;;24.60;80.40;;;;;;1694153;29;20200;-69
2022/04/11 09:23:23;;;;;;;4.05;3.72;;;25.70;76.60;;;;;;1694100;29;20212;-69
2022/04/11 09:24:17;;;;;;;4.28;3.90;;;26.50;74.90;;;;;;1694123;29;20274;-70
2022/04/11 09:25:09;;;;;;;4.45;4.05;;;27.10;73.60;;;;;;1691244;29;20200;-70
2022/04/11 09:26:15;;;;;;;3.88;3.58;;;27.90;73.40;;;;;;1691024;29;20206;-70
2022/04/11 09:27:06;;;;;;;6.38;4.00;;;28.70;71.00;;;;;;1690233;29;20212;-69
2022/04/11 09:28:06;;;;;;;4.00;3.70;;;29.30;69.90;;;;;;1688133;29;20212;-70
2022/04/11 09:29:02;;;;;;;5.20;4.60;;;29.90;69.40;;;;;;1694031;29;20467;-69
2022/04/11 09:29:54;;;;;;;5.63;3.92;;;30.50;68.70;;;;;;1693921;29;20694;-70
2022/04/11 09:30:46;;;;;;;3.70;3.40;;;31.00;67.30;;;;;;1693829;29;20227;-70
2022/04/11 09:31:38;;;;;;;5.10;3.38;;;31.30;65.60;;;;;;1693947;29;20235;-70